Time;durP1;ratioP1;P1;durP2;ratioP2;P2;SDS_P1;SDS_P2;PMS_P1;PMS_P2;Temp;Humidity;BMP_temperature;BMP_pressure;BME280_temperature;BME280_humidity;BME280_pressure;Samples;Min_cycle;Max_cycle;Signal;HPM_P1;HPM_P2
2023/03/28 00:01:50;;;;;;;4.85;2.00;;;;;;;1.93;72.88;102610.78;5125822;27;20023;-85
2023/03/28 00:04:16;;;;;;;5.15;2.05;;;;;;;1.95;73.40;102619.53;5113820;27;20027;-85
2023/03/28 00:06:44;;;;;;;7.72;2.45;;;;;;;1.93;73.03;102623.84;5121989;28;20148;-85
2023/03/28 00:09:09;;;;;;;13.25;2.63;;;;;;;1.86;73.39;102614.09;5115628;28;20030;-85
2023/03/28 00:11:35;;;;;;;9.48;2.70;;;;;;;1.70;73.54;102605.00;5115456;27;20043;-85
2023/03/28 00:14:00;;;;;;;8.48;2.08;;;;;;;1.67;73.98;102607.53;5120558;27;20054;-86
2023/03/28 00:16:30;;;;;;;4.32;1.92;;;;;;;1.72;73.71;102611.13;5118401;27;20387;-86
2023/03/28 00:18:59;;;;;;;10.13;2.33;;;;;;;1.67;73.66;102610.16;5109188;28;20024;-86
2023/03/28 00:21:28;;;;;;;8.57;2.15;;;;;;;1.66;73.66;102611.88;5126282;27;20072;-85
2023/03/28 00:23:55;;;;;;;6.15;2.15;;;;;;;1.66;73.62;102611.00;5118501;27;20035;-86
2023/03/28 00:26:23;;;;;;;9.63;2.50;;;;;;;1.64;73.56;102604.88;5116929;27;20027;-86
2023/03/28 00:28:50;;;;;;;6.60;2.40;;;;;;;1.63;73.91;102593.56;5110069;27;20023;-86
2023/03/28 00:31:16;;;;;;;4.53;2.40;;;;;;;1.66;73.76;102600.56;5125618;27;20019;-86
2023/03/28 00:33:42;;;;;;;5.57;2.53;;;;;;;1.74;73.95;102605.13;5121179;27;20474;-86
2023/03/28 00:36:09;;;;;;;6.40;2.45;;;;;;;1.63;73.72;102597.88;5125324;27;20019;-86
2023/03/28 00:38:35;;;;;;;4.03;2.50;;;;;;;1.60;74.13;102595.22;5123250;27;20034;-86
2023/03/28 00:41:00;;;;;;;4.63;2.20;;;;;;;1.62;73.96;102609.16;5117448;27;20431;-86
2023/03/28 00:43:46;;;;;;;4.47;2.17;;;;;;;1.62;73.67;102603.94;5110098;28;20102;-86
2023/03/28 00:46:21;;;;;;;8.55;2.28;;;;;;;1.60;74.20;102608.25;5124114;27;20035;-86
2023/03/28 00:49:11;;;;;;;5.97;2.33;;;;;;;1.60;73.93;102610.84;5115212;28;20475;-86
2023/03/28 00:51:40;;;;;;;5.32;2.20;;;;;;;1.50;74.65;102614.94;5123401;27;20466;-86
2023/03/28 00:54:11;;;;;;;5.75;2.20;;;;;;;1.47;74.58;102609.66;5122735;27;20015;-85
2023/03/28 00:56:40;;;;;;;4.95;2.33;;;;;;;1.46;74.29;102608.78;5127542;27;20622;-86
2023/03/28 00:59:10;;;;;;;5.85;2.13;;;;;;;1.48;74.84;102612.28;5121210;28;20371;-86
2023/03/28 01:01:36;;;;;;;16.83;2.70;;;;;;;1.44;74.77;102609.56;5120911;27;20344;-85
2023/03/28 01:04:01;;;;;;;6.05;2.00;;;;;;;1.40;74.61;102612.94;5131303;27;20550;-86
2023/03/28 01:06:31;;;;;;;6.32;2.30;;;;;;;1.24;74.68;102611.66;5119304;27;20479;-86
2023/03/28 01:08:59;;;;;;;7.10;2.53;;;;;;;1.23;75.20;102602.97;5126597;27;20073;-86
2023/03/28 01:11:26;;;;;;;11.23;2.40;;;;;;;1.26;75.06;102610.00;5124150;27;21914;-86
2023/03/28 01:13:52;;;;;;;7.90;2.65;;;;;;;1.27;74.64;102610.03;5123720;27;20023;-86
2023/03/28 01:16:20;;;;;;;5.00;2.53;;;;;;;1.30;75.12;102611.81;5118192;27;20114;-86
2023/03/28 01:18:50;;;;;;;9.32;2.40;;;;;;;1.30;75.31;102608.31;5129891;27;20027;-85
2023/03/28 01:21:47;;;;;;;5.13;2.08;;;;;;;1.31;75.37;102599.69;5126788;27;20505;-86
2023/03/28 01:24:21;;;;;;;4.75;2.40;;;;;;;1.28;75.18;102603.09;5120955;27;20027;-85
2023/03/28 01:26:52;;;;;;;7.10;2.63;;;;;;;1.22;75.35;102597.72;5120004;27;20489;-86
2023/03/28 01:29:27;;;;;;;6.10;3.10;;;;;;;1.13;75.28;102602.69;5121563;27;20053;-85
2023/03/28 01:32:20;;;;;;;7.15;2.45;;;;;;;1.07;75.54;102602.50;5116578;27;20524;-86
2023/03/28 01:35:17;;;;;;;2.58;2.13;;;;;;;1.26;73.84;102597.84;5118407;27;20038;-85
2023/03/28 01:37:51;;;;;;;2.83;2.40;;;;;;;1.02;75.37;102598.03;5102621;27;20036;-85
2023/03/28 01:40:35;;;;;;;3.40;2.05;;;;;;;0.96;75.32;102597.88;5129813;27;20626;-85
2023/03/28 01:43:20;;;;;;;4.00;2.20;;;;;;;0.96;75.14;102592.66;5120074;27;20065;-85
2023/03/28 01:46:10;;;;;;;7.18;2.40;;;;;;;1.20;74.58;102595.06;5118636;27;20032;-85
2023/03/28 01:48:42;;;;;;;6.53;2.35;;;;;;;1.05;75.23;102596.38;5111690;27;20035;-85
2023/03/28 01:51:08;;;;;;;;;;;;;;;1.12;73.33;102593.06;5122593;27;20027;-85
2023/03/28 01:53:42;;;;;;;7.57;2.90;;;;;;;1.13;74.51;102582.72;5112297;27;20397;-85
2023/03/28 01:56:14;;;;;;;7.25;2.17;;;;;;;1.13;74.79;102594.88;5111963;27;20772;-85
2023/03/28 01:58:48;;;;;;;7.38;2.25;;;;;;;1.03;74.61;102585.94;5123173;27;20023;-85
2023/03/28 02:01:21;;;;;;;5.03;2.40;;;;;;;0.92;75.56;102580.41;5119029;27;20371;-85
2023/03/28 02:03:50;;;;;;;12.18;2.63;;;;;;;0.74;75.48;102574.69;5116079;27;20031;-85
2023/03/28 02:06:19;;;;;;;3.22;2.10;;;;;;;0.82;75.44;102585.31;5116961;27;20104;-85
2023/03/28 02:08:47;;;;;;;5.57;2.65;;;;;;;0.95;74.86;102577.03;5118445;27;20547;-85
2023/03/28 02:11:13;;;;;;;6.38;2.50;;;;;;;0.90;74.92;102578.63;5112399;27;20043;-85
2023/03/28 02:13:45;;;;;;;3.75;2.13;;;;;;;1.05;74.81;102589.44;5121720;27;20030;-85
2023/03/28 02:16:12;;;;;;;3.75;2.30;;;;;;;1.07;75.01;102586.88;5124265;27;20030;-85
2023/03/28 02:18:42;;;;;;;6.25;2.75;;;;;;;1.05;74.21;102580.75;5122990;27;20043;-85
2023/03/28 02:21:15;;;;;;;3.58;2.13;;;;;;;0.97;74.47;102575.31;5124643;27;20026;-85
2023/03/28 02:23:46;;;;;;;3.90;2.65;;;;;;;1.01;74.74;102585.88;5116945;27;20394;-85
2023/03/28 02:26:12;;;;;;;4.80;3.08;;;;;;;0.88;74.86;102575.06;5125692;27;20066;-85
2023/03/28 02:28:41;;;;;;;6.18;2.53;;;;;;;0.90;74.85;102583.81;5124386;27;20109;-85
2023/03/28 02:31:08;;;;;;;4.93;2.50;;;;;;;0.89;75.03;102582.06;5122576;27;20026;-85
2023/03/28 02:33:38;;;;;;;6.65;2.60;;;;;;;0.84;74.93;102587.16;5123817;27;20027;-86
2023/03/28 02:36:33;;;;;;;7.50;2.88;;;;;;;0.75;75.26;102571.28;5118253;27;20032;-85
2023/03/28 02:39:17;;;;;;;6.53;2.65;;;;;;;0.83;75.09;102585.34;5117554;27;20034;-85
2023/03/28 02:41:50;;;;;;;6.47;2.55;;;;;;;0.78;75.38;102579.16;5126627;27;20016;-85
2023/03/28 02:44:49;;;;;;;4.03;2.63;;;;;;;0.84;75.34;102583.63;5130038;27;20482;-85
2023/03/28 02:47:26;;;;;;;4.18;2.22;;;;;;;0.90;74.73;102581.22;5122868;27;20553;-85
2023/03/28 02:49:57;;;;;;;6.88;2.40;;;;;;;0.90;74.03;102587.31;5127160;27;20056;-85
2023/03/28 02:52:34;;;;;;;5.78;2.60;;;;;;;0.91;74.74;102582.97;5129467;27;20027;-85
2023/03/28 02:55:12;;;;;;;6.38;2.85;;;;;;;0.91;74.89;102580.38;5125736;27;20379;-85
2023/03/28 02:57:44;;;;;;;5.30;2.50;;;;;;;0.81;74.50;102571.44;5130634;27;20063;-85
2023/03/28 03:00:15;;;;;;;7.38;3.13;;;;;;;0.87;74.69;102575.91;5125397;27;20034;-85
2023/03/28 03:02:48;;;;;;;6.45;2.70;;;;;;;0.80;75.21;102580.09;5120228;27;20372;-85
2023/03/28 03:05:13;;;;;;;6.25;2.53;;;;;;;0.67;75.04;102572.75;5124981;27;20039;-85
2023/03/28 03:07:39;;;;;;;3.15;2.42;;;;;;;0.49;75.87;102575.72;5123207;27;20539;-85
2023/03/28 03:10:06;;;;;;;4.28;2.80;;;;;;;0.47;75.89;102570.47;5126928;27;20042;-85
2023/03/28 03:12:34;;;;;;;4.43;2.50;;;;;;;0.47;76.03;102574.81;5121957;27;20031;-85
2023/03/28 03:15:00;;;;;;;5.35;2.65;;;;;;;0.36;76.50;102560.59;5126301;27;20019;-85
2023/03/28 03:17:27;;;;;;;7.13;2.70;;;;;;;0.35;75.52;102564.91;5126525;27;20266;-85
2023/03/28 03:19:53;;;;;;;7.72;3.38;;;;;;;0.40;76.60;102572.84;5120328;27;20018;-85
2023/03/28 03:22:19;;;;;;;8.85;2.92;;;;;;;0.24;76.36;102563.72;5124630;27;20031;-85
2023/03/28 03:24:45;;;;;;;8.20;3.50;;;;;;;0.29;76.75;102580.34;5128899;27;20152;-85
2023/03/28 03:27:11;;;;;;;6.53;3.15;;;;;;;0.30;76.69;102576.03;5123050;27;20034;-85
2023/03/28 03:29:36;;;;;;;3.63;2.60;;;;;;;0.30;76.60;102573.41;5127432;27;20030;-85
2023/03/28 03:32:01;;;;;;;9.02;3.17;;;;;;;0.24;76.60;102577.59;5121647;27;20110;-85
2023/03/28 03:34:26;;;;;;;4.22;3.08;;;;;;;0.17;76.98;102573.03;5119074;27;20122;-85
2023/03/28 03:36:53;;;;;;;6.45;3.78;;;;;;;0.22;76.68;102576.66;5117277;27;20497;-85
2023/03/28 03:39:19;;;;;;;3.55;2.30;;;;;;;0.21;76.80;102576.63;5130407;27;20030;-85
2023/03/28 03:41:44;;;;;;;4.82;2.55;;;;;;;0.16;76.90;102578.19;5124289;27;20092;-85
2023/03/28 03:44:10;;;;;;;6.75;3.08;;;;;;;0.03;77.24;102569.13;5116802;27;20027;-85
2023/03/28 03:46:35;;;;;;;5.78;3.30;;;;;;;0.08;77.09;102577.06;5122636;27;20019;-85
2023/03/28 03:49:01;;;;;;;7.03;3.05;;;;;;;0.07;77.43;102575.31;5126564;27;20470;-85
2023/03/28 03:51:26;;;;;;;6.90;3.13;;;;;;;0.07;77.38;102575.31;5125230;27;20027;-85
2023/03/28 03:53:51;;;;;;;9.98;3.55;;;;;;;0.05;77.18;102562.28;5117197;27;20595;-85
2023/03/28 03:56:16;;;;;;;8.05;3.38;;;;;;;0.24;77.49;102581.94;5119764;27;20014;-85
2023/03/28 03:58:42;;;;;;;4.97;3.10;;;;;;;0.34;76.65;102576.16;5122916;28;20023;-85
2023/03/28 04:01:12;;;;;;;7.82;3.60;;;;;;;0.37;76.71;102570.16;5125595;27;20390;-85
2023/03/28 04:03:39;;;;;;;5.32;3.65;;;;;;;0.34;76.66;102567.47;5121528;27;20041;-85
2023/03/28 04:06:05;;;;;;;5.95;2.97;;;;;;;0.39;76.46;102565.88;5114379;28;20038;-85
2023/03/28 04:08:30;;;;;;;9.32;4.13;;;;;;;0.43;76.34;102566.03;5131115;27;20031;-85
2023/03/28 04:10:55;;;;;;;7.53;3.08;;;;;;;0.43;76.61;102576.44;5124190;27;20079;-85
2023/03/28 04:13:21;;;;;;;8.40;3.60;;;;;;;0.43;76.45;102571.22;5121116;28;20463;-85
2023/03/28 04:15:46;;;;;;;7.93;3.97;;;;;;;0.39;76.51;102568.50;5124824;28;20026;-85
2023/03/28 04:18:14;;;;;;;6.63;3.65;;;;;;;0.41;76.51;102577.19;5123949;27;20035;-85
2023/03/28 04:20:39;;;;;;;6.97;3.85;;;;;;;0.42;76.67;102578.97;5130146;27;20351;-85
2023/03/28 04:23:07;;;;;;;7.43;3.67;;;;;;;0.42;76.62;102574.66;5121139;27;20034;-85
2023/03/28 04:25:32;;;;;;;10.48;4.57;;;;;;;0.33;77.35;102574.41;5117258;28;20495;-85
2023/03/28 04:28:00;;;;;;;5.78;3.97;;;;;;;0.26;77.39;102567.22;5121171;28;20114;-85
2023/03/28 04:30:26;;;;;;;8.15;4.13;;;;;;;0.33;77.01;102576.13;5124967;27;20494;-85
2023/03/28 04:32:53;;;;;;;7.60;4.20;;;;;;;0.29;77.58;102559.53;5123683;28;20076;-85
2023/03/28 04:35:18;;;;;;;5.88;4.22;;;;;;;0.28;76.96;102560.38;5123461;27;20301;-85
2023/03/28 04:37:44;;;;;;;12.50;4.60;;;;;;;0.28;76.81;102560.38;5125180;27;20106;-85
2023/03/28 04:40:09;;;;;;;7.32;4.18;;;;;;;0.29;76.65;102556.94;5121778;27;20032;-85
2023/03/28 04:42:38;;;;;;;7.43;4.00;;;;;;;0.26;77.18;102556.81;5124116;27;20027;-85
2023/03/28 04:45:05;;;;;;;10.02;5.00;;;;;;;0.28;77.19;102562.97;5139265;27;20057;-85
2023/03/28 04:47:30;;;;;;;9.95;4.32;;;;;;;0.29;77.17;102563.84;5122148;27;20023;-85
2023/03/28 04:49:57;;;;;;;7.80;4.63;;;;;;;0.25;77.08;102557.69;5126108;27;20019;-85
2023/03/28 04:52:22;;;;;;;6.55;3.88;;;;;;;0.23;76.86;102560.25;5130324;27;20027;-85
2023/03/28 04:54:48;;;;;;;7.22;3.72;;;;;;;0.23;76.89;102565.44;5129213;27;20023;-85
2023/03/28 04:57:13;;;;;;;9.90;4.38;;;;;;;0.24;77.13;102568.91;5130865;27;20026;-85
2023/03/28 04:59:38;;;;;;;9.68;4.35;;;;;;;0.24;76.81;102555.91;5119943;27;20118;-85
2023/03/28 05:02:03;;;;;;;11.55;4.68;;;;;;;0.25;76.60;102557.69;5128152;27;20050;-85
2023/03/28 05:04:29;;;;;;;9.75;4.85;;;;;;;0.17;76.78;102559.16;5123150;27;20075;-85
2023/03/28 05:06:55;;;;;;;7.65;4.80;;;;;;;0.19;76.98;102570.50;5117414;27;20382;-85
2023/03/28 05:09:21;;;;;;;7.15;4.88;;;;;;;0.16;77.07;102571.28;5124487;27;20165;-85
2023/03/28 05:11:47;;;;;;;9.13;4.80;;;;;;;0.12;76.82;102573.75;5124998;27;20031;-85
2023/03/28 05:14:12;;;;;;;7.07;4.38;;;;;;;0.08;76.92;102575.34;5127806;27;20054;-85
2023/03/28 05:16:38;;;;;;;6.90;4.50;;;;;;;0.04;76.80;102567.41;5127505;27;20238;-85
2023/03/28 05:19:03;;;;;;;8.60;4.45;;;;;;;0.13;77.47;102585.91;5120771;27;20390;-85
2023/03/28 05:21:28;;;;;;;10.70;4.72;;;;;;;0.06;77.13;102576.16;5128117;27;20112;-85
2023/03/28 05:23:53;;;;;;;8.65;5.28;;;;;;;0.15;76.99;102590.31;5119311;27;20381;-85
2023/03/28 05:26:19;;;;;;;10.05;5.15;;;;;;;0.16;76.91;102591.22;5126640;27;20027;-85
2023/03/28 05:28:45;;;;;;;12.98;5.00;;;;;;;0.15;77.27;102576.44;5117600;27;20567;-85
2023/03/28 05:31:11;;;;;;;9.82;5.50;;;;;;;0.12;76.76;102569.41;5128960;27;20019;-85
2023/03/28 05:33:37;;;;;;;11.60;5.55;;;;;;;0.19;77.02;102587.00;5119168;27;20038;-85
2023/03/28 05:36:03;;;;;;;8.32;4.88;;;;;;;0.20;77.08;102593.06;5115817;27;20418;-85
2023/03/28 05:38:30;;;;;;;11.13;5.10;;;;;;;0.08;77.53;102583.16;5119342;27;20096;-85
2023/03/28 05:40:57;;;;;;;10.63;5.20;;;;;;;0.13;77.40;102596.31;5130321;27;20106;-85
2023/03/28 05:43:22;;;;;;;7.95;4.28;;;;;;;0.12;77.36;102597.16;5126815;27;20031;-85
2023/03/28 05:45:48;;;;;;;7.95;4.82;;;;;;;0.11;77.33;102592.78;5118107;27;20019;-85
2023/03/28 05:48:13;;;;;;;15.25;5.22;;;;;;;0.16;77.44;102606.81;5117087;27;20038;-85
2023/03/28 05:50:39;;;;;;;11.40;6.28;;;;;;;0.15;78.03;102605.06;5121754;27;21247;-85
2023/03/28 05:53:04;;;;;;;8.75;5.32;;;;;;;0.12;77.65;102600.63;5127884;27;20031;-85
2023/03/28 05:55:29;;;;;;;10.43;5.97;;;;;;;0.15;77.87;102599.84;5123352;27;20023;-85
2023/03/28 05:57:56;;;;;;;15.50;5.93;;;;;;;0.20;77.80;102601.75;5115421;27;20080;-85
2023/03/28 06:00:22;;;;;;;10.43;5.88;;;;;;;0.22;77.30;102588.78;5120531;27;20393;-85
2023/03/28 06:02:49;;;;;;;15.23;6.50;;;;;;;0.33;77.78;102596.94;5126169;27;20023;-85
2023/03/28 06:05:15;;;;;;;9.57;6.07;;;;;;;0.33;78.14;102595.22;5128674;27;20466;-85
2023/03/28 06:07:40;;;;;;;9.18;5.95;;;;;;;0.40;77.52;102594.53;5118250;27;20121;-85
2023/03/28 06:10:07;;;;;;;14.20;7.43;;;;;;;0.47;78.11;102588.69;5121523;27;20040;-85
2023/03/28 06:12:32;;;;;;;13.38;6.95;;;;;;;0.64;78.07;102590.88;5120838;27;20538;-85
2023/03/28 06:14:58;;;;;;;11.13;7.05;;;;;;;0.76;77.54;102591.25;5116741;27;20028;-85
2023/03/28 06:17:24;;;;;;;10.48;6.47;;;;;;;0.85;77.82;102588.03;5121580;27;20027;-85
2023/03/28 06:19:50;;;;;;;10.93;7.25;;;;;;;0.98;77.84;102585.81;5118549;27;20119;-85
2023/03/28 06:22:15;;;;;;;14.90;7.68;;;;;;;1.01;77.63;102583.25;5125274;27;20023;-85
2023/03/28 06:24:40;;;;;;;20.40;7.72;;;;;;;1.15;78.26;102587.97;5119343;27;20350;-85
2023/03/28 06:27:06;;;;;;;22.65;9.18;;;;;;;1.14;78.41;102581.00;5126212;27;20026;-85
2023/03/28 06:29:31;;;;;;;19.73;10.02;;;;;;;1.20;78.66;102586.34;5125128;27;20030;-85
2023/03/28 06:31:57;;;;;;;17.30;9.85;;;;;;;1.25;78.46;102598.66;5118225;27;20050;-85
2023/03/28 06:34:22;;;;;;;23.42;11.00;;;;;;;1.25;78.65;102577.81;5124982;27;20390;-85
2023/03/28 06:36:48;;;;;;;13.32;9.15;;;;;;;1.46;78.36;102593.13;5120591;27;20027;-85
2023/03/28 06:39:13;;;;;;;16.63;10.35;;;;;;;1.59;78.07;102602.16;5128165;27;20289;-85
2023/03/28 06:41:38;;;;;;;20.38;10.32;;;;;;;1.62;78.23;102597.00;5115771;27;20055;-85
2023/03/28 06:44:04;;;;;;;19.98;10.48;;;;;;;1.72;78.32;102600.72;5120046;27;20554;-85
2023/03/28 06:46:30;;;;;;;16.20;9.95;;;;;;;1.83;78.18;102601.88;5117999;27;20027;-85
2023/03/28 06:48:55;;;;;;;20.27;9.88;;;;;;;1.92;77.74;102599.47;5125843;27;20031;-85
2023/03/28 06:51:21;;;;;;;25.42;11.18;;;;;;;2.01;77.53;102593.59;5119625;27;20031;-85
2023/03/28 06:53:46;;;;;;;18.88;10.73;;;;;;;2.01;77.75;102591.88;5121447;27;20360;-85
2023/03/28 06:56:12;;;;;;;14.55;9.75;;;;;;;2.15;77.76;102607.84;5124970;27;20027;-85
2023/03/28 06:58:38;;;;;;;17.05;10.77;;;;;;;2.21;77.31;102607.09;5126668;27;20019;-85
2023/03/28 07:01:03;;;;;;;19.30;9.85;;;;;;;2.34;77.09;102603.03;5122166;27;20015;-85
2023/03/28 07:03:29;;;;;;;17.95;10.77;;;;;;;2.38;76.79;102603.13;5111266;27;20110;-85
2023/03/28 07:05:55;;;;;;;15.95;10.90;;;;;;;2.46;76.47;102609.38;5116468;27;20027;-85
2023/03/28 07:08:20;;;;;;;17.98;9.82;;;;;;;2.58;76.32;102613.13;5124116;27;20165;-85
2023/03/28 07:10:46;;;;;;;20.48;9.38;;;;;;;2.65;75.77;102607.16;5117524;27;20154;-85
2023/03/28 07:13:11;;;;;;;22.63;9.70;;;;;;;2.72;75.81;102611.69;5122780;27;20114;-85
2023/03/28 07:15:37;;;;;;;20.10;8.85;;;;;;;2.82;75.14;102611.00;5121344;27;20511;-85
2023/03/28 07:18:04;;;;;;;18.05;8.98;;;;;;;2.92;74.33;102599.91;5117530;27;20028;-85
2023/03/28 07:20:29;;;;;;;16.75;8.55;;;;;;;3.05;74.06;102609.72;5121058;27;20049;-85
2023/03/28 07:22:55;;;;;;;20.00;8.55;;;;;;;3.12;73.92;102607.22;5123327;27;20572;-85
2023/03/28 07:25:20;;;;;;;19.15;7.57;;;;;;;3.29;73.52;102611.03;5120936;27;20491;-85
2023/03/28 07:27:46;;;;;;;17.45;7.93;;;;;;;3.41;73.42;102616.50;5125303;27;20820;-85
2023/03/28 07:30:12;;;;;;;19.08;8.00;;;;;;;3.55;72.64;102620.25;5115862;27;20721;-85
2023/03/28 07:32:37;;;;;;;13.82;6.93;;;;;;;3.61;71.71;102624.69;5122867;27;20508;-85
2023/03/28 07:35:04;;;;;;;12.90;6.40;;;;;;;3.73;71.85;102618.78;5117302;27;20410;-85
2023/03/28 07:37:29;;;;;;;20.02;8.93;;;;;;;3.86;72.02;102619.84;5127873;27;20419;-85
2023/03/28 07:39:55;;;;;;;13.25;7.30;;;;;;;3.95;71.23;102612.16;5120347;27;20116;-85
2023/03/28 07:42:22;;;;;;;13.27;7.35;;;;;;;4.15;71.30;102620.31;5114005;27;20037;-85
2023/03/28 07:44:47;;;;;;;19.25;6.63;;;;;;;4.33;71.16;102615.34;5116935;27;20492;-86
2023/03/28 07:47:13;;;;;;;14.20;5.90;;;;;;;4.50;69.51;102616.47;5124420;27;20109;-86
2023/03/28 07:49:38;;;;;;;8.32;5.32;;;;;;;4.69;68.73;102625.44;5123077;27;20105;-85
2023/03/28 07:52:04;;;;;;;10.93;5.32;;;;;;;4.83;68.71;102618.63;5123074;27;20084;-86
2023/03/28 07:54:32;;;;;;;10.23;5.00;;;;;;;5.06;68.39;102618.91;5115032;27;20023;-86
2023/03/28 07:56:58;;;;;;;9.13;4.60;;;;;;;5.40;67.70;102618.38;5110228;27;20042;-86
2023/03/28 07:59:24;;;;;;;7.55;4.53;;;;;;;5.65;67.56;102616.88;5123433;27;20023;-86
2023/03/28 08:01:51;;;;;;;10.32;4.43;;;;;;;5.85;64.90;102616.16;5122446;27;20030;-86
2023/03/28 08:04:16;;;;;;;12.38;5.35;;;;;;;5.96;63.93;102611.00;5119685;27;20019;-86
2023/03/28 08:06:41;;;;;;;7.75;4.15;;;;;;;6.01;63.29;102613.66;5125323;27;20474;-87
2023/03/28 08:09:10;;;;;;;13.20;4.68;;;;;;;6.07;62.68;102627.75;5121209;27;20033;-87
2023/03/28 08:11:36;;;;;;;8.82;3.72;;;;;;;6.36;63.46;102621.78;5112978;27;20051;-88
2023/03/28 08:14:04;;;;;;;10.48;4.57;;;;;;;6.73;62.61;102627.25;5120134;27;20027;-89
2023/03/28 08:16:29;;;;;;;7.25;2.97;;;;;;;6.80;60.01;102621.13;5116498;27;20384;-88
2023/03/28 08:18:55;;;;;;;6.30;2.78;;;;;;;6.77;59.54;102613.25;5122889;27;20034;-89
2023/03/28 08:21:20;;;;;;;11.27;3.63;;;;;;;6.85;59.74;102601.88;5123110;27;20027;-88
2023/03/28 08:23:46;;;;;;;12.02;4.03;;;;;;;6.93;59.97;102608.91;5118579;27;20035;-88
2023/03/28 08:26:11;;;;;;;7.88;3.85;;;;;;;6.75;58.26;102615.84;5116618;27;20020;-88
2023/03/28 08:28:38;;;;;;;8.50;3.38;;;;;;;6.83;59.23;102608.88;5120489;27;20023;-88
2023/03/28 08:31:13;;;;;;;6.78;3.08;;;;;;;6.90;60.85;102615.94;5131973;27;20456;-89
2023/03/28 08:33:50;;;;;;;10.07;3.13;;;;;;;7.03;59.07;102610.69;5135057;27;20019;-89
2023/03/28 08:36:16;;;;;;;6.00;2.50;;;;;;;7.32;57.69;102611.66;5133635;27;20027;-88
2023/03/28 08:38:45;;;;;;;10.52;3.97;;;;;;;7.52;55.68;102609.03;5137648;27;20029;-89
2023/03/28 08:41:25;;;;;;;9.48;3.05;;;;;;;7.74;57.18;102603.75;5117943;27;20088;-89
2023/03/28 08:44:11;;;;;;;12.07;4.10;;;;;;;8.10;55.76;102610.75;5124086;27;20630;-90
2023/03/28 08:46:41;;;;;;;9.38;3.67;;;;;;;8.04;54.61;102613.41;5142509;27;20034;-90
2023/03/28 08:49:19;;;;;;;4.63;2.25;;;;;;;7.68;53.80;102607.28;5121134;27;20088;-91
2023/03/28 08:51:49;;;;;;;5.32;2.63;;;;;;;8.07;55.36;102609.03;5121851;27;20593;-90
2023/03/28 08:54:43;;;;;;;9.48;2.60;;;;;;;7.95;54.50;102606.41;5117849;27;20097;-91
2023/03/28 08:57:16;;;;;;;7.00;1.92;;;;;;;8.16;53.88;102606.38;5120842;27;20065;-91
2023/03/28 08:59:49;;;;;;;5.03;1.98;;;;;;;8.04;54.21;102595.84;5128311;27;20522;-90
2023/03/28 09:02:25;;;;;;;7.38;2.28;;;;;;;8.24;54.96;102602.84;5104008;28;20587;-90
2023/03/28 09:04:51;;;;;;;8.43;2.88;;;;;;;8.11;53.97;102600.25;5128392;27;20058;-91
2023/03/28 09:07:33;;;;;;;8.32;2.50;;;;;;;8.10;55.27;102589.69;5124396;27;20019;-90
2023/03/28 09:10:19;;;;;;;4.75;2.65;;;;;;;7.82;52.66;102583.59;5118244;27;20051;-90
2023/03/28 09:13:13;;;;;;;9.30;2.28;;;;;;;7.73;52.96;102591.50;5125881;27;20487;-90
2023/03/28 09:16:05;;;;;;;6.25;2.47;;;;;;;7.87;54.46;102590.59;5125506;27;20066;-90
2023/03/28 09:18:44;;;;;;;5.07;1.63;;;;;;;7.63;52.34;102595.88;5125968;27;20024;-90
2023/03/28 09:21:22;;;;;;;5.38;2.13;;;;;;;7.89;53.13;102593.25;5123740;27;20532;-90
2023/03/28 09:24:05;;;;;;;5.68;2.20;;;;;;;8.02;52.23;102600.25;5119793;27;20409;-91
2023/03/28 09:26:36;;;;;;;11.23;3.03;;;;;;;7.79;53.72;102586.25;5120424;27;20023;-88
2023/03/28 09:29:09;;;;;;;4.70;1.73;;;;;;;7.91;53.99;102589.72;5127564;27;20023;-89
2023/03/28 09:31:39;;;;;;;3.13;1.55;;;;;;;8.19;54.28;102594.94;5128917;27;20083;-89
2023/03/28 09:34:05;;;;;;;5.65;2.00;;;;;;;8.22;55.05;102567.72;5118742;27;20382;-89
2023/03/28 09:36:32;;;;;;;8.00;2.47;;;;;;;8.37;52.90;102583.53;5127369;27;20020;-89
2023/03/28 09:39:00;;;;;;;7.03;1.95;;;;;;;8.47;52.00;102576.47;5127247;27;20035;-90
2023/03/28 09:41:55;;;;;;;7.25;2.10;;;;;;;8.37;51.62;102576.50;5115068;27;20029;-89
2023/03/28 09:44:29;;;;;;;7.40;2.17;;;;;;;8.26;51.61;102570.34;5073309;28;20182;-90
2023/03/28 09:46:56;;;;;;;5.10;2.25;;;;;;;8.21;53.98;102566.84;5135294;27;20034;-88
2023/03/28 09:49:24;;;;;;;8.48;2.38;;;;;;;8.34;53.41;102573.81;5136039;27;20389;-89
2023/03/28 09:51:53;;;;;;;4.65;1.95;;;;;;;8.45;52.36;102568.56;5130494;27;20023;-90
2023/03/28 09:54:27;;;;;;;3.22;1.98;;;;;;;8.43;51.46;102562.41;5128198;27;20030;-90
2023/03/28 09:56:58;;;;;;;3.65;1.90;;;;;;;8.54;51.15;102571.16;5113160;27;20033;-91
2023/03/28 09:59:29;;;;;;;4.00;2.07;;;;;;;8.29;51.00;102567.69;5113466;27;20482;-90
2023/03/28 10:01:55;;;;;;;6.38;2.22;;;;;;;8.32;52.32;102558.91;5115450;27;20400;-90
2023/03/28 10:04:26;;;;;;;3.80;1.80;;;;;;;8.65;51.88;102553.53;5109625;27;20080;-91
2023/03/28 10:06:53;;;;;;;8.82;2.95;;;;;;;8.88;51.93;102547.25;5120416;27;20498;-90
2023/03/28 10:09:20;;;;;;;6.07;2.13;;;;;;;9.63;49.92;102547.59;5112085;27;20463;-91
2023/03/28 10:11:54;;;;;;;9.90;2.55;;;;;;;9.62;47.72;102537.91;5123567;27;20047;-90
2023/03/28 10:14:48;;;;;;;6.97;2.30;;;;;;;9.11;46.84;102544.50;5124696;27;20027;-90
2023/03/28 10:17:25;;;;;;;4.25;1.58;;;;;;;9.07;47.81;102530.44;5109186;27;20490;-90
2023/03/28 10:19:57;;;;;;;4.95;2.13;;;;;;;8.91;50.78;102507.69;5118569;27;20039;-90
2023/03/28 10:22:44;;;;;;;7.00;2.67;;;;;;;9.30;47.89;102519.72;5127688;27;20035;-89
2023/03/28 10:25:20;;;;;;;5.07;2.03;;;;;;;9.38;48.90;102520.53;5119400;27;20046;-91
2023/03/28 10:27:46;;;;;;;6.28;2.35;;;;;;;9.55;48.55;102520.38;5124011;27;20055;-90
2023/03/28 10:30:25;;;;;;;2.45;1.42;;;;;;;9.99;45.11;102519.06;5117175;27;20100;-91
2023/03/28 10:33:22;;;;;;;5.68;2.35;;;;;;;10.25;45.38;102515.28;5115748;27;20035;-89
2023/03/28 10:35:56;;;;;;;5.25;1.58;;;;;;;10.17;45.20;102508.28;5122691;27;20467;-88
2023/03/28 10:38:23;;;;;;;2.95;1.63;;;;;;;10.37;44.00;102507.22;5123401;27;20230;-88
2023/03/28 10:40:52;;;;;;;7.00;2.03;;;;;;;10.01;44.13;102501.41;5122072;27;20054;-89
2023/03/28 10:43:17;;;;;;;6.72;2.03;;;;;;;10.00;43.72;102498.81;5124045;27;20034;-89
2023/03/28 10:45:45;;;;;;;8.52;2.05;;;;;;;9.53;45.35;102493.13;5127905;27;20083;-89
2023/03/28 10:48:16;;;;;;;6.43;2.15;;;;;;;9.82;45.61;102489.31;5122467;27;20033;-88
2023/03/28 10:50:48;;;;;;;6.75;1.98;;;;;;;10.46;43.27;102484.16;5124346;27;20366;-88
2023/03/28 10:53:26;;;;;;;;;;;;;;;11.40;42.48;102478.31;5114078;27;20035;-89
2023/03/28 10:56:13;;;;;;;4.72;2.00;;;;;;;12.23;43.16;102480.28;5129010;27;19916;-89
2023/03/28 10:58:59;;;;;;;6.82;1.80;;;;;;;12.28;39.75;102477.53;5112622;27;20058;-88
2023/03/28 11:01:34;;;;;;;8.07;1.95;;;;;;;12.75;38.41;102470.31;5110858;27;20372;-88
2023/03/28 11:04:24;;;;;;;4.47;1.45;;;;;;;12.97;38.42;102478.66;5135351;27;20045;-88
2023/03/28 11:06:55;;;;;;;3.35;1.45;;;;;;;11.67;37.51;102484.03;5114678;27;20027;-88
2023/03/28 11:09:37;;;;;;;3.28;1.80;;;;;;;12.00;38.77;102466.63;5120422;27;20030;-87
2023/03/28 11:12:10;;;;;;;5.32;2.13;;;;;;;11.96;38.00;102463.16;5124781;27;20047;-88
2023/03/28 11:14:57;;;;;;;4.80;1.52;;;;;;;11.56;37.95;102440.94;5120948;27;20034;-88
2023/03/28 11:17:47;;;;;;;5.07;1.70;;;;;;;12.11;39.45;102437.25;5118843;27;20034;-88
2023/03/28 11:20:33;;;;;;;6.35;1.80;;;;;;;12.31;38.36;102436.81;5129799;27;20375;-89
2023/03/28 11:23:27;;;;;;;4.30;1.73;;;;;;;11.83;37.77;102426.34;5111673;27;20032;-88
2023/03/28 11:25:58;;;;;;;5.15;2.20;;;;;;;11.76;39.64;102430.88;5122693;27;20080;-89
2023/03/28 11:28:53;;;;;;;5.00;2.28;;;;;;;11.61;38.20;102415.25;5116604;27;20023;-89
2023/03/28 11:31:29;;;;;;;4.68;1.73;;;;;;;11.83;37.63;102400.69;5111953;27;20042;-89
2023/03/28 11:34:01;;;;;;;5.38;2.33;;;;;;;11.55;35.55;102424.19;5120720;27;20026;-89
2023/03/28 11:36:33;;;;;;;4.90;1.90;;;;;;;11.82;38.86;102417.50;5112013;27;20027;-89
2023/03/28 11:39:18;;;;;;;3.03;1.93;;;;;;;12.06;39.33;102394.06;5125035;27;20027;-90
2023/03/28 11:41:47;;;;;;;6.45;2.10;;;;;;;12.18;37.60;102399.97;5122240;27;20034;-89
2023/03/28 11:44:29;;;;;;;3.28;1.92;;;;;;;12.24;38.52;102407.78;5119121;27;20382;-88
2023/03/28 11:47:17;;;;;;;6.45;2.67;;;;;;;11.96;38.43;102396.03;5120535;27;20049;-90